Dades meteomassalio
Diari Summary for Febrer 1, 2018 Units:  Metric    English   Both
« Previous Day
Next Day »
Diari Semanal Mensual Anual Personalitzat
  Maxima: Minima: Mijana:
Temperatura: -17.8 °C -19 °C -15.8 °C
Rosada: -17.8 °C -19.6 °C -17.3 °C
Humitat: Humidity % 69 % 82 %
Velocitat del vent: 0 km/h 0 km/h 23.5 km/h
Racha vent: 0 km/h - -
Vent:- - NW
Pressio: 0 hPa 34212.1 hPa -
Pluja: 7.62 mm    
Historical Graphs
 
 
Tabular Data for Febrer 1, 2018
Time Temperature Dew Point Pressure Wind Wind Speed Wind Gust Humidity Rainfall Rate (Hourly) solar Conditions
-17.8 °C -17.8 °C 0 hPa Calm     Humidity % 0 mm SolarRadiationWatts/m^2 W/m2 Conditions
00:04 -17.8 °C -18.4 °C 34567.7 hPa Calm     92 % 0 mm 0.0 W/m2 RA
00:09 -17.8 °C -18.4 °C 34567.7 hPa Calm     92 % 0 mm 0.0 W/m2 CLR
00:14 -17.4 °C -18.1 °C 34567.7 hPa Calm     92 % 0 mm 0.0 W/m2 CLR
00:19 -17.8 °C -18.4 °C 34554.1 hPa Calm     92 % 0 mm 0.0 W/m2 CLR
00:24 -17.4 °C -18.1 °C 34567.7 hPa Calm     92 % 0 mm 0.0 W/m2 CLR
00:29 -17.4 °C -18.1 °C 34554.1 hPa Calm     92 % 0 mm 0.0 W/m2 CLR
00:34 -17.8 °C -18.4 °C 34554.1 hPa Calm     92 % 0 mm 0.0 W/m2 CLR
00:39 -17.8 °C -18.4 °C 34554.1 hPa Calm     92 % 0 mm 0.0 W/m2 CLR
00:44 -17.8 °C -18.4 °C 34554.1 hPa Calm     92 % 0 mm 0.0 W/m2 CLR
00:49 -17.8 °C -18.4 °C 34554.1 hPa Calm     92 % 0 mm 0.0 W/m2 CLR
00:54 -17.8 °C -18.4 °C 34544 hPa Calm     92 % 0 mm 0.0 W/m2 CLR
00:59 -17.8 °C -18.4 °C 34544 hPa Calm     92 % 0 mm 0.0 W/m2 CLR
01:04 -18.1 °C -18.7 °C 34544 hPa Calm     92 % 0 mm 0.0 W/m2 CLR
01:09 -18.1 °C -18.7 °C 34544 hPa Calm     92 % 0 mm 0.0 W/m2 CLR
01:14 -18.1 °C -18.7 °C 34544 hPa WNW 6 km/h   92 % 0 mm 0.0 W/m2 CLR
01:19 -18.1 °C -18.7 °C 34544 hPa Calm     92 % 0 mm 0.0 W/m2 CLR
01:24 -18.1 °C -18.7 °C 34533.8 hPa Calm     92 % 0 mm 0.0 W/m2 CLR
01:29 -18.1 °C -18.7 °C 34533.8 hPa Calm     92 % 0 mm 0.0 W/m2 CLR
01:34 -18.1 °C -18.7 °C 34533.8 hPa Calm     92 % 0 mm 0.0 W/m2 CLR
01:39 -18.4 °C -19 °C 34533.8 hPa Calm     92 % 0 mm 0.0 W/m2 CLR
01:44 -18.1 °C -18.7 °C 34533.8 hPa Calm     92 % 0 mm 0.0 W/m2 CLR
01:49 -18.4 °C -19 °C 34533.8 hPa Calm     92 % 0 mm 0.0 W/m2 CLR
01:54 -18.4 °C -19 °C 34533.8 hPa Calm     92 % 0 mm 0.0 W/m2 CLR
01:59 -18.1 °C -18.7 °C 34533.8 hPa Calm     92 % 0 mm 0.0 W/m2 CLR
02:04 -18.4 °C -19 °C 34520.3 hPa Calm     92 % 0 mm 0.0 W/m2 CLR
02:09 -18.4 °C -19 °C 34520.3 hPa Calm     92 % 0 mm 0.0 W/m2 CLR
02:14 -18.4 °C -19 °C 34520.3 hPa Calm     92 % 0 mm 0.0 W/m2 CLR
02:19 -18.4 °C -18.9 °C 34520.3 hPa Calm     93 % 0 mm 0.0 W/m2 CLR
02:24 -18.4 °C -18.9 °C 34520.3 hPa Calm     93 % 7.62 mm 0.0 W/m2 RA
02:29 -18.4 °C -18.9 °C 34520.3 hPa Calm     93 % 7.62 mm 0.0 W/m2
02:34 -18.7 °C -19.3 °C 34520.3 hPa Calm     93 % 7.62 mm 0.0 W/m2 CLR
02:39 -18.7 °C -19.3 °C 34520.3 hPa Calm     92 % 7.62 mm 0.0 W/m2 CLR
02:44 -18.7 °C -19.3 °C 34510.1 hPa Calm     92 % 7.62 mm 0.0 W/m2 CLR
02:49 -18.7 °C -19.3 °C 34510.1 hPa Calm     92 % 7.62 mm 0.0 W/m2 CLR
02:55 -18.7 °C -19.3 °C 34510.1 hPa Calm     93 % 7.62 mm 0.0 W/m2 CLR
03:00 -18.7 °C -19.3 °C 34510.1 hPa Calm     93 % 7.62 mm 0.0 W/m2 CLR
03:05 -19 °C -19.6 °C 34510.1 hPa Calm     93 % 7.62 mm 0.0 W/m2 CLR
03:10 -19 °C -19.6 °C 34510.1 hPa Calm     93 % 7.62 mm 0.0 W/m2 CLR
03:15 -18.7 °C -19.3 °C 34510.1 hPa Calm     92 % 7.62 mm 0.0 W/m2 CLR
03:20 -18.7 °C -19.3 °C 34510.1 hPa Calm     92 % 7.62 mm 0.0 W/m2 CLR
03:25 -18.7 °C -19.3 °C 34496.6 hPa Calm     92 % 0 mm 0.0 W/m2 CLR
03:30 -18.7 °C -19.3 °C 34496.6 hPa Calm     92 % 0 mm 0.0 W/m2 CLR
03:35 -18.7 °C -19.3 °C 34496.6 hPa Calm     93 % 0 mm 0.0 W/m2 CLR
03:40 -18.7 °C -19.3 °C 34510.1 hPa Calm     93 % 0 mm 0.0 W/m2 CLR
03:45 -18.7 °C -19.3 °C 34496.6 hPa Calm     93 % 0 mm 0.0 W/m2 CLR
03:50 -18.7 °C -19.3 °C 34496.6 hPa Calm     93 % 0 mm 0.0 W/m2 CLR
03:55 -18.7 °C -19.3 °C 34496.6 hPa Calm     92 % 0 mm 0.0 W/m2 CLR
04:00 -19 °C -19.6 °C 34486.4 hPa Calm     93 % 0 mm 0.0 W/m2 CLR
04:05 -19 °C -19.6 °C 34486.4 hPa Calm     93 % 0 mm 0.0 W/m2 CLR
04:10 -19 °C -19.6 °C 34486.4 hPa Calm     93 % 0 mm 0.0 W/m2 CLR
04:15 -19 °C -19.6 °C 34476.3 hPa Calm     93 % 0 mm 0.0 W/m2 CLR
04:20 -19 °C -19.6 °C 34476.3 hPa Calm     93 % 0 mm 0.0 W/m2 CLR
04:25 -19 °C -19.6 °C 34476.3 hPa Calm     93 % 0 mm 0.0 W/m2 CLR
04:30 -19 °C -19.6 °C 34462.7 hPa Calm     92 % 0 mm 0.0 W/m2 CLR
04:35 -19 °C -19.6 °C 34476.3 hPa Calm     93 % 0 mm 0.0 W/m2 CLR
04:40 -19 °C -19.6 °C 34462.7 hPa Calm     93 % 0 mm 0.0 W/m2 CLR
04:45 -19 °C -19.6 °C 34462.7 hPa Calm     92 % 0 mm 0.0 W/m2 CLR
04:50 -19 °C -19.6 °C 34462.7 hPa Calm     93 % 0 mm 0.0 W/m2 CLR
04:55 -19 °C -19.6 °C 34462.7 hPa Calm     93 % 0 mm 0.0 W/m2 CLR
05:00 -19 °C -19.6 °C 34462.7 hPa Calm     93 % 0 mm 0.0 W/m2 CLR
05:05 -19 °C -19.6 °C 34452.6 hPa Calm     93 % 0 mm 0.0 W/m2 CLR
05:10 -19 °C -19.6 °C 34452.6 hPa Calm     93 % 0 mm 0.0 W/m2 CLR
05:15 -19 °C -19.6 °C 34452.6 hPa Calm     93 % 0 mm 0.0 W/m2 CLR
05:20 -18.7 °C -19.3 °C 34452.6 hPa Calm     93 % 0 mm 0.0 W/m2 CLR
05:25 -18.7 °C -19.3 °C 34452.6 hPa Calm     93 % 0 mm 0.0 W/m2 CLR
05:30 -18.7 °C -19.3 °C 34452.6 hPa Calm     92 % 0 mm 0.0 W/m2 CLR
05:35 -18.7 °C -19.3 °C 34442.4 hPa Calm     93 % 0 mm 0.0 W/m2 CLR
05:40 -18.7 °C -19.3 °C 34442.4 hPa Calm     93 % 0 mm 0.0 W/m2 CLR
05:45 -18.7 °C -19.3 °C 34428.8 hPa Calm     93 % 0 mm 0.0 W/m2 CLR
05:50 -18.7 °C -19.3 °C 34428.8 hPa Calm     93 % 0 mm 0.0 W/m2 CLR
05:55 -18.7 °C -19.3 °C 34428.8 hPa Calm     93 % 0 mm 0.0 W/m2 CLR
06:00 -18.7 °C -19.3 °C 34428.8 hPa Calm     93 % 0 mm 0.0 W/m2 CLR
06:05 -18.7 °C -19.3 °C 34428.8 hPa Calm     93 % 0 mm 0.0 W/m2 CLR
06:10 -18.7 °C -19.3 °C 34428.8 hPa Calm     93 % 0 mm 0.0 W/m2 CLR
06:15 -18.4 °C -18.9 °C 34428.8 hPa Calm     93 % 0 mm 0.0 W/m2 CLR
06:20 -18.4 °C -18.9 °C 34428.8 hPa Calm     93 % 0 mm 0.0 W/m2 CLR
06:25 -18.4 °C -18.9 °C 34418.7 hPa Calm     93 % 0 mm 0.0 W/m2 CLR
06:30 -18.4 °C -18.9 °C 34418.7 hPa Calm     93 % 0 mm 0.0 W/m2 CLR
06:35 -18.4 °C -18.9 °C 34418.7 hPa Calm     93 % 0 mm 0.0 W/m2 CLR
06:40 -18.4 °C -18.9 °C 34418.7 hPa Calm     93 % 0 mm 0.0 W/m2 CLR
06:45 -18.4 °C -18.9 °C 34418.7 hPa Calm     93 % 0 mm 0.0 W/m2 CLR
06:50 -18.4 °C -18.9 °C 34418.7 hPa Calm     93 % 0 mm 0.0 W/m2 CLR
06:55 -18.4 °C -18.9 °C 34418.7 hPa Calm     93 % 0 mm 0.0 W/m2 CLR
07:00 -18.4 °C -18.9 °C 34418.7 hPa Calm     93 % 0 mm 0.0 W/m2 CLR
07:05 -18.4 °C -18.9 °C 34418.7 hPa Calm     93 % 0 mm 0.0 W/m2 CLR
07:10 -18.4 °C -18.9 °C 34418.7 hPa Calm     93 % 0 mm 0.0 W/m2 CLR
07:15 -18.4 °C -18.9 °C 34418.7 hPa Calm     93 % 0 mm 0.0 W/m2 CLR
07:20 -18.4 °C -18.9 °C 34418.7 hPa Calm     93 % 0 mm 0.0 W/m2 CLR
07:25 -18.4 °C -18.9 °C 34418.7 hPa Calm     93 % 0 mm 0.0 W/m2 CLR
07:30 -18.4 °C -18.9 °C 34418.7 hPa Calm     93 % 0 mm 0.0 W/m2 CLR
07:35 -18.4 °C -18.9 °C 34418.7 hPa Calm     93 % 0 mm 0.0 W/m2 CLR
07:40 -18.4 °C -18.9 °C 34418.7 hPa Calm     93 % 0 mm 0.0 W/m2 CLR
07:45 -18.4 °C -18.9 °C 34418.7 hPa Calm     93 % 0 mm 0.0 W/m2 CLR
07:50 -18.4 °C -18.9 °C 34418.7 hPa Calm     93 % 0 mm 0.0 W/m2 CLR
07:55 -18.4 °C -18.9 °C 34405.1 hPa Calm     93 % 0 mm 0.0 W/m2 CLR
08:01 -18.4 °C -18.9 °C 34405.1 hPa Calm     93 % 0 mm 0.0 W/m2 OVC
08:06 -18.4 °C -18.9 °C 34405.1 hPa Calm     93 % 0 mm 0.0 W/m2 OVC
08:11 -18.4 °C -18.9 °C 34405.1 hPa Calm     93 % 0 mm 0.0 W/m2 OVC
08:16 -18.1 °C -18.7 °C 34405.1 hPa Calm     93 % 0 mm 5.0 W/m2 OVC
08:21 -18.1 °C -18.7 °C 34395 hPa Calm     93 % 0 mm 0.0 W/m2 OVC
08:26 -18.1 °C -18.7 °C 34395 hPa Calm     93 % 0 mm 0.0 W/m2 OVC
08:31 -18.1 °C -18.7 °C 34395 hPa Calm     93 % 0 mm 5.0 W/m2 OVC
08:36 -18.1 °C -18.7 °C 34395 hPa Calm     93 % 0 mm 5.0 W/m2 OVC
08:41 -17.8 °C -18.3 °C 34384.8 hPa WSW 3.1 km/h 3.1 km/h 93 % 0 mm 7.0 W/m2 BKN
08:46 -17.8 °C -18.3 °C 34384.8 hPa Calm     93 % 0 mm 11.0 W/m2 BKN
08:51 -17.8 °C -18.3 °C 34384.8 hPa Calm     93 % 0 mm 16.0 W/m2 BKN
08:56 -17.8 °C -18.3 °C 34384.8 hPa Calm     93 % 0 mm 26.0 W/m2 BKN
09:01 -17.8 °C -18.3 °C 34384.8 hPa Calm     93 % 0 mm 42.0 W/m2 BKN
09:06 -17.8 °C -18.3 °C 34384.8 hPa Calm     93 % 0 mm 51.0 W/m2 SCT
09:11 -17.8 °C -18.3 °C 34371.3 hPa Calm     93 % 0 mm 51.0 W/m2 SCT
09:16 -17.4 °C -18 °C 34371.3 hPa Calm     93 % 0 mm 49.0 W/m2 SCT
09:21 -17.4 °C -18 °C 34371.3 hPa Calm     93 % 0 mm 47.0 W/m2 SCT
09:26 -17.4 °C -18 °C 34371.3 hPa Calm     93 % 0 mm 46.0 W/m2 SCT
09:31 -17.4 °C -18.1 °C 34371.3 hPa West 7.7 km/h 7.7 km/h 92 % 0 mm 46.0 W/m2 SCT
09:36 -17.4 °C -18 °C 34371.3 hPa West 15.6 km/h 15.6 km/h 93 % 0 mm 47.0 W/m2 SCT
09:41 -17.2 °C -17.7 °C 34371.3 hPa West 15 km/h 15 km/h 93 % 0 mm 49.0 W/m2 SCT
09:46 -17.2 °C -17.9 °C 34371.3 hPa West 10.3 km/h 10.3 km/h 91 % 0 mm 58.0 W/m2 SCT
09:51 -17.2 °C -18.1 °C 34371.3 hPa WSW 7.7 km/h 7.7 km/h 89 % 0 mm 65.0 W/m2 SCT
09:56 -16.8 °C -17.7 °C 34371.3 hPa West 11.9 km/h 11.9 km/h 89 % 0 mm 69.0 W/m2 SCT
10:01 -16.8 °C -17.8 °C 34371.3 hPa WNW 9 km/h   88 % 0 mm 76.0 W/m2 FEW
10:06 -16.8 °C -17.9 °C 34371.3 hPa WNW 9 km/h   87 % 0 mm 84.0 W/m2 FEW
10:11 -16.8 °C -17.9 °C 34371.3 hPa Calm     87 % 0 mm 100.0 W/m2 CLR
10:17 -16.6 °C -17.6 °C 34361.1 hPa NW 9 km/h 9 km/h 88 % 0 mm 105.0 W/m2 CLR
10:22 -16.6 °C -17.6 °C 34361.1 hPa WNW 11.9 km/h 11.9 km/h 87 % 0 mm 100.0 W/m2 CLR
10:27 -16.2 °C -17.6 °C 34371.3 hPa NNW 10.3 km/h 10.3 km/h 84 % 0 mm 98.0 W/m2 CLR
10:32 -16.2 °C -17.7 °C 34371.3 hPa NW 20.9 km/h 20.9 km/h 83 % 0 mm 97.0 W/m2 CLR
10:37 -16.2 °C -18.1 °C 34361.1 hPa NW 29.8 km/h 29.8 km/h 79 % 0 mm 93.0 W/m2 CLR
10:42 -15.9 °C -18.1 °C 34361.1 hPa NW 20.9 km/h 20.9 km/h 76 % 0 mm 98.0 W/m2 CLR
10:47 -15.9 °C -18.2 °C 34361.1 hPa NW 23.8 km/h 23.8 km/h 75 % 0 mm 107.0 W/m2 CLR
10:52 -15.9 °C -18.3 °C 34361.1 hPa NW 23.8 km/h 23.8 km/h 74 % 0 mm 113.0 W/m2 CLR
10:57 -15.6 °C -17.9 °C 34361.1 hPa WNW 23.8 km/h 23.8 km/h 74 % 0 mm 118.0 W/m2 CLR
11:02 -15.3 °C -17.8 °C 34361.1 hPa NW 29.8 km/h 29.8 km/h 73 % 0 mm 130.0 W/m2 CLR
11:07 -15 °C -17.4 °C 34347.6 hPa WNW 32.8 km/h 32.8 km/h 73 % 0 mm 128.0 W/m2 CLR
11:12 -14.1 °C -16.6 °C 34347.6 hPa NW 26.9 km/h 26.9 km/h 73 % 0 mm 132.0 W/m2 CLR
11:17 -13.4 °C -15.9 °C 34361.1 hPa NW 41.7 km/h 41.7 km/h 74 % 0 mm 146.0 W/m2 CLR
11:22 -13.2 °C -15.6 °C 34361.1 hPa NW 33.6 km/h 33.6 km/h 74 % 0 mm 171.0 W/m2 CLR
11:27 -13.2 °C -15.4 °C 34361.1 hPa NW 44.7 km/h 44.7 km/h 75 % 0 mm 181.0 W/m2 CLR
11:32 -12.8 °C -15.1 °C 34347.6 hPa NW 38.8 km/h 38.8 km/h 76 % 0 mm 172.0 W/m2 CLR
11:37 -12.8 °C -14.9 °C 34347.6 hPa NW 47.6 km/h 47.6 km/h 77 % 0 mm 165.0 W/m2 CLR
11:42 -12.8 °C -14.9 °C 34347.6 hPa NW 20.9 km/h 20.9 km/h 77 % 0 mm 160.0 W/m2 CLR
11:47 -12.8 °C -14.9 °C 34347.6 hPa NW 38.8 km/h 38.8 km/h 77 % 0 mm 176.0 W/m2 CLR
11:52 -12.8 °C -14.9 °C 34337.4 hPa NNW 41.7 km/h 41.7 km/h 77 % 0 mm 176.0 W/m2 CLR
11:57 -12.8 °C -14.9 °C 34337.4 hPa NNW 38.8 km/h 38.8 km/h 77 % 0 mm 185.0 W/m2 CLR
12:02 -12.6 °C -14.7 °C 34337.4 hPa NW 38.8 km/h 38.8 km/h 77 % 0 mm 209.0 W/m2 CLR
12:07 -12.6 °C -14.7 °C 34337.4 hPa NW 47.6 km/h 47.6 km/h 77 % 0 mm 227.0 W/m2 CLR
12:12 -12.6 °C -14.8 °C 34337.4 hPa NW 29.8 km/h 29.8 km/h 76 % 0 mm 236.0 W/m2 CLR
12:17 -12.6 °C -14.7 °C 34337.4 hPa NW 41.7 km/h 41.7 km/h 77 % 0 mm 230.0 W/m2 CLR
12:22 -12.2 °C -14.3 °C 34337.4 hPa NW 41.7 km/h 41.7 km/h 77 % 0 mm 218.0 W/m2 CLR
12:27 -12.2 °C -14.3 °C 34337.4 hPa NNW 41.7 km/h 41.7 km/h 77 % 0 mm 193.0 W/m2 CLR
12:32 -12.2 °C -14.5 °C 34327.3 hPa North 47.6 km/h 47.6 km/h 76 % 0 mm 156.0 W/m2 CLR
12:37 -12.6 °C -14.8 °C 34327.3 hPa NNW 47.6 km/h 47.6 km/h 76 % 0 mm 156.0 W/m2 CLR
12:42 -12.6 °C -14.8 °C 34327.3 hPa NW 50.7 km/h 50.7 km/h 76 % 0 mm 135.0 W/m2 CLR
12:47 -12.6 °C -14.7 °C 34313.7 hPa NW 38.8 km/h 38.8 km/h 77 % 0 mm 118.0 W/m2 CLR
12:52 -12.6 °C -14.8 °C 34313.7 hPa NNW 51.8 km/h 51.8 km/h 76 % 0 mm 98.0 W/m2 CLR
12:57 -12.6 °C -14.8 °C 34313.7 hPa NNW 44.7 km/h 44.7 km/h 76 % 0 mm 97.0 W/m2 CLR
13:02 -12.6 °C -14.8 °C 34313.7 hPa NNW 50.7 km/h 50.7 km/h 76 % 0 mm 104.0 W/m2 CLR
13:07 -12.6 °C -14.8 °C 34303.6 hPa NW 35.7 km/h 35.7 km/h 76 % 0 mm 98.0 W/m2 CLR
13:12 -12.6 °C -14.8 °C 34303.6 hPa NW 44.7 km/h 44.7 km/h 76 % 0 mm 95.0 W/m2 CLR
13:17 -12.6 °C -14.7 °C 34303.6 hPa NW 38.8 km/h 38.8 km/h 77 % 0 mm 93.0 W/m2 CLR
13:22 -12.8 °C -14.9 °C 34303.6 hPa WNW 38.8 km/h 38.8 km/h 77 % 0 mm 88.0 W/m2 CLR
13:27 -12.8 °C -14.9 °C 34293.4 hPa NNW 50.7 km/h 50.7 km/h 77 % 0 mm 83.0 W/m2 CLR
13:32 -12.8 °C -14.8 °C 34293.4 hPa NW 44.7 km/h 44.7 km/h 78 % 0 mm 77.0 W/m2 FEW
13:37 -12.8 °C -14.8 °C 34293.4 hPa WNW 41.7 km/h 41.7 km/h 78 % 0 mm 74.0 W/m2 FEW
13:42 -12.8 °C -14.8 °C 34293.4 hPa NNW 47.6 km/h 47.6 km/h 79 % 0 mm 70.0 W/m2 FEW
13:47 -12.8 °C -14.8 °C 34293.4 hPa NW 41.4 km/h 41.4 km/h 79 % 0 mm 69.0 W/m2 FEW
13:52 -12.8 °C -14.8 °C 34279.9 hPa NNW 41.7 km/h 41.7 km/h 79 % 0 mm 74.0 W/m2 FEW
13:57 -12.8 °C -14.8 °C 34279.9 hPa NNW 44.7 km/h 44.7 km/h 79 % 0 mm 84.0 W/m2 FEW
14:02 -12.8 °C -14.8 °C 34279.9 hPa NNW 38.8 km/h 38.8 km/h 79 % 0 mm 93.0 W/m2 FEW
14:07 -12.8 °C -14.8 °C 34279.9 hPa NW 38.8 km/h 38.8 km/h 79 % 0 mm 100.0 W/m2 CLR
14:12 -12.8 °C -14.8 °C 34269.7 hPa NW 50.7 km/h 50.7 km/h 79 % 0 mm 105.0 W/m2 CLR
14:17 -12.8 °C -14.8 °C 34269.7 hPa NW 32.8 km/h 32.8 km/h 79 % 0 mm 100.0 W/m2 CLR
14:22 -12.8 °C -14.8 °C 34269.7 hPa NW 50.7 km/h 50.7 km/h 78 % 0 mm 91.0 W/m2 CLR
14:27 -12.8 °C -14.8 °C 34269.7 hPa NW 36.2 km/h 36.2 km/h 78 % 0 mm 86.0 W/m2 CLR
14:32 -12.8 °C -14.9 °C 34256.2 hPa NNW 36.2 km/h 36.2 km/h 77 % 0 mm 90.0 W/m2 CLR
14:37 -12.8 °C -14.9 °C 34256.2 hPa NW 41.4 km/h 41.4 km/h 77 % 0 mm 84.0 W/m2 CLR
14:42 -12.8 °C -15.1 °C 34256.2 hPa NW 44.7 km/h 44.7 km/h 76 % 0 mm 97.0 W/m2 CLR
14:47 -12.8 °C -15.1 °C 34256.2 hPa NNW 41.7 km/h 41.7 km/h 76 % 0 mm 95.0 W/m2 CLR
14:52 -12.8 °C -15.1 °C 34256.2 hPa NW 38.8 km/h 38.8 km/h 76 % 0 mm 84.0 W/m2 CLR
14:57 -12.8 °C -15.2 °C 34256.2 hPa NW 36.2 km/h 36.2 km/h 75 % 0 mm 93.0 W/m2 CLR
15:02 -12.8 °C -15.2 °C 34246 hPa NW 29.8 km/h 29.8 km/h 75 % 0 mm 83.0 W/m2 CLR
15:07 -12.8 °C -15.3 °C 34246 hPa NNW 38.8 km/h 38.8 km/h 74 % 0 mm 79.0 W/m2 FEW
15:12 -12.8 °C -15.2 °C 34246 hPa NNW 29.8 km/h 29.8 km/h 75 % 0 mm 76.0 W/m2 FEW
15:17 -12.8 °C -15.2 °C 34246 hPa NNW 31.1 km/h 31.1 km/h 75 % 0 mm 74.0 W/m2 FEW
15:22 -12.8 °C -15.3 °C 34246 hPa NNW 32.8 km/h 32.8 km/h 74 % 0 mm 58.0 W/m2 FEW
15:27 -12.8 °C -15.2 °C 34246 hPa NW 29.8 km/h 29.8 km/h 75 % 0 mm 69.0 W/m2 FEW
15:33 -12.8 °C -15.4 °C 34235.8 hPa NW 32.8 km/h 32.8 km/h 73 % 0 mm 69.0 W/m2 FEW
15:38 -12.8 °C -15.4 °C 34235.8 hPa NW 41.7 km/h 41.7 km/h 73 % 0 mm 70.0 W/m2 FEW
15:43 -12.8 °C -15.4 °C 34235.8 hPa NW 38.8 km/h 38.8 km/h 73 % 0 mm 84.0 W/m2 FEW
15:48 -12.8 °C -15.4 °C 34235.8 hPa North 41.7 km/h 41.7 km/h 73 % 0 mm 95.0 W/m2 FEW
15:53 -12.8 °C -15.4 °C 34235.8 hPa NNW 32.8 km/h 32.8 km/h 73 % 0 mm 88.0 W/m2 CLR
15:58 -12.8 °C -15.4 °C 34235.8 hPa NNW 36.2 km/h 36.2 km/h 73 % 0 mm 97.0 W/m2 CLR
16:03 -12.8 °C -15.4 °C 34235.8 hPa NW 38.8 km/h 38.8 km/h 73 % 0 mm 102.0 W/m2 CLR
16:08 -12.8 °C -15.4 °C 34235.8 hPa North 47.6 km/h 47.6 km/h 73 % 0 mm 102.0 W/m2 CLR
16:13 -12.8 °C -15.4 °C 34222.3 hPa NNW 47.6 km/h 47.6 km/h 73 % 0 mm 125.0 W/m2 CLR
16:18 -12.8 °C -15.5 °C 34222.3 hPa NNW 38.8 km/h 38.8 km/h 72 % 0 mm 121.0 W/m2 CLR
16:23 -12.8 °C -15.5 °C 34222.3 hPa NW 41.7 km/h 41.7 km/h 72 % 0 mm 109.0 W/m2 CLR
16:28 -12.8 °C -15.6 °C 34212.1 hPa NW 53.6 km/h 53.6 km/h 71 % 0 mm 98.0 W/m2 CLR
16:33 -12.8 °C -15.6 °C 34212.1 hPa NW 41.7 km/h 41.7 km/h 71 % 0 mm 93.0 W/m2 CLR
16:38 -12.8 °C -15.6 °C 34212.1 hPa NW 50.7 km/h 50.7 km/h 71 % 0 mm 69.0 W/m2 CLR
16:43 -12.8 °C -15.6 °C 34212.1 hPa NNW 44.1 km/h 44.1 km/h 71 % 0 mm 62.0 W/m2 FEW
16:48 -12.8 °C -15.6 °C 34212.1 hPa NW 44.7 km/h 44.7 km/h 71 % 0 mm 63.0 W/m2 SCT
16:53 -13.2 °C -16 °C 34212.1 hPa NW 35.7 km/h 35.7 km/h 70 % 0 mm 62.0 W/m2 SCT
16:58 -13.2 °C -16 °C 34212.1 hPa NNW 50.7 km/h 50.7 km/h 70 % 0 mm 60.0 W/m2 SCT
17:03 -13.2 °C -15.9 °C 34212.1 hPa NNW 38.8 km/h 38.8 km/h 71 % 0 mm 58.0 W/m2 SCT
17:08 -13.2 °C -16 °C 34212.1 hPa NW 44.1 km/h 44.1 km/h 70 % 0 mm 54.0 W/m2 SCT
17:13 -13.2 °C -16 °C 34212.1 hPa NW 53.6 km/h 53.6 km/h 70 % 0 mm 46.0 W/m2 SCT
17:18 -13.2 °C -16.1 °C 34212.1 hPa NW 50.7 km/h 50.7 km/h 69 % 0 mm 42.0 W/m2 BKN
17:23 -13.2 °C -16 °C 34212.1 hPa NNW 41.7 km/h 41.7 km/h 70 % 0 mm 39.0 W/m2 BKN
17:28 -13.2 °C -16 °C 34212.1 hPa NNW 50.7 km/h 50.7 km/h 70 % 0 mm 35.0 W/m2 BKN
17:33 -13.2 °C -16 °C 34212.1 hPa NW 59.5 km/h 59.5 km/h 70 % 0 mm 30.0 W/m2 BKN
17:38 -13.2 °C -16.1 °C 34212.1 hPa NW 50.7 km/h 50.7 km/h 69 % 0 mm 25.0 W/m2 BKN
17:43 -13.2 °C -16 °C 34212.1 hPa NNW 44.1 km/h 44.1 km/h 70 % 0 mm 19.0 W/m2 BKN
17:48 -13.2 °C -16 °C 34212.1 hPa NW 41.7 km/h 41.7 km/h 70 % 0 mm 16.0 W/m2 BKN
17:53 -13.2 °C -16 °C 34212.1 hPa NW 44.7 km/h 44.7 km/h 70 % 0 mm 11.0 W/m2 BKN
17:58 -13.4 °C -16.3 °C 34212.1 hPa NW 50.7 km/h 50.7 km/h 70 % 0 mm 7.0 W/m2 BKN
18:03 -13.4 °C -16.2 °C 34212.1 hPa NNW 56.6 km/h 56.6 km/h 71 % 0 mm 5.0 W/m2 OVC
18:08 -13.4 °C -16.2 °C 34212.1 hPa NNW 41.7 km/h 41.7 km/h 71 % 0 mm 0.0 W/m2 OVC
18:13 -13.4 °C -16.3 °C 34212.1 hPa NW 47.6 km/h 47.6 km/h 70 % 0 mm 0.0 W/m2 OVC
18:18 -13.4 °C -16.2 °C 34212.1 hPa NNW 38.8 km/h 38.8 km/h 71 % 0 mm 0.0 W/m2 OVC
18:23 -13.4 °C -16.2 °C 34212.1 hPa NW 35.7 km/h 35.7 km/h 71 % 0 mm 0.0 W/m2 OVC
18:28 -13.4 °C -16.3 °C 34212.1 hPa NW 41.7 km/h 41.7 km/h 70 % 0 mm 0.0 W/m2 CLR
18:33 -13.4 °C -16.2 °C 34212.1 hPa NNW 50.7 km/h 50.7 km/h 71 % 0 mm 0.0 W/m2 CLR
18:38 -13.8 °C -16.5 °C 34212.1 hPa NNW 38.8 km/h 38.8 km/h 71 % 0 mm 0.0 W/m2 CLR
18:43 -13.8 °C -16.4 °C 34212.1 hPa NW 29.8 km/h 29.8 km/h 72 % 0 mm 0.0 W/m2 CLR
18:48 -13.8 °C -16.3 °C 34212.1 hPa NW 41.7 km/h 41.7 km/h 73 % 0 mm 0.0 W/m2 CLR
18:53 -13.8 °C -16.3 °C 34212.1 hPa NNW 59.5 km/h 59.5 km/h 73 % 0 mm 0.0 W/m2 CLR
18:58 -14.1 °C -16.6 °C 34222.3 hPa NW 50.7 km/h 50.7 km/h 73 % 0 mm 0.0 W/m2 CLR
19:03 -14.1 °C -16.6 °C 34222.3 hPa NW 29.8 km/h 29.8 km/h 73 % 0 mm 0.0 W/m2 CLR
19:08 -14.1 °C -16.5 °C 34222.3 hPa NW 50.7 km/h 50.7 km/h 74 % 0 mm 0.0 W/m2 CLR
19:13 -14.4 °C -16.8 °C 34222.3 hPa NW 38.8 km/h 38.8 km/h 74 % 0 mm 0.0 W/m2 CLR
19:18 -14.4 °C -16.8 °C 34222.3 hPa WNW 44.7 km/h 44.7 km/h 74 % 0 mm 0.0 W/m2 CLR
19:23 -14.4 °C -16.8 °C 34222.3 hPa WNW 38.8 km/h 38.8 km/h 74 % 0 mm 0.0 W/m2 CLR
19:28 -14.4 °C -16.8 °C 34222.3 hPa WNW 50.7 km/h 50.7 km/h 74 % 0 mm 0.0 W/m2 CLR
19:33 -14.4 °C -16.8 °C 34222.3 hPa WNW 38.8 km/h 38.8 km/h 74 % 0 mm 0.0 W/m2 CLR
19:38 -14.4 °C -16.8 °C 34222.3 hPa NW 41.4 km/h 41.4 km/h 74 % 0 mm 0.0 W/m2 CLR
19:43 -14.4 °C -16.7 °C 34222.3 hPa NW 50.7 km/h 50.7 km/h 75 % 0 mm 0.0 W/m2 CLR
19:48 -14.4 °C -16.6 °C 34222.3 hPa NW 50.7 km/h 50.7 km/h 76 % 0 mm 0.0 W/m2 CLR
19:53 -14.4 °C -16.6 °C 34235.8 hPa NW 56.6 km/h 56.6 km/h 76 % 0 mm 0.0 W/m2 CLR
19:58 -14.7 °C -16.8 °C 34222.3 hPa NW 50.7 km/h 50.7 km/h 76 % 0 mm 0.0 W/m2 CLR
20:03 -14.7 °C -16.8 °C 34222.3 hPa NW 44.7 km/h 44.7 km/h 77 % 0 mm 0.0 W/m2 CLR
20:08 -14.7 °C -16.8 °C 34235.8 hPa NW 50.7 km/h 50.7 km/h 77 % 0 mm 0.0 W/m2 CLR
20:13 -14.7 °C -16.8 °C 34222.3 hPa NW 50.7 km/h 50.7 km/h 76 % 0 mm 0.0 W/m2 CLR
20:18 -14.7 °C -16.8 °C 34222.3 hPa NNW 50.7 km/h 50.7 km/h 76 % 0 mm 0.0 W/m2 CLR
20:23 -14.7 °C -16.8 °C 34222.3 hPa NW 51.8 km/h 51.8 km/h 76 % 0 mm 0.0 W/m2 CLR
20:28 -15 °C -17.2 °C 34222.3 hPa NW 68.6 km/h 68.6 km/h 76 % 0 mm 0.0 W/m2 CLR
20:33 -15 °C -17.2 °C 34235.8 hPa NW 53.6 km/h 53.6 km/h 76 % 0 mm 0.0 W/m2 CLR
20:38 -15 °C -17.2 °C 34235.8 hPa NW 56.6 km/h 56.6 km/h 76 % 0 mm 0.0 W/m2 CLR
20:43 -15 °C -17.2 °C 34235.8 hPa NW 50.7 km/h 50.7 km/h 76 % 0 mm 0.0 W/m2 CLR
20:48 -15 °C -17.2 °C 34235.8 hPa NNW 44.7 km/h 44.7 km/h 76 % 0 mm 0.0 W/m2 CLR
20:53 -15 °C -17.2 °C 34246 hPa NNW 47.6 km/h 47.6 km/h 76 % 0 mm 0.0 W/m2 CLR
20:58 -15 °C -17.2 °C 34246 hPa NW 41.7 km/h 41.7 km/h 76 % 0 mm 0.0 W/m2 CLR
21:03 -15 °C -17.2 °C 34246 hPa NNW 50.7 km/h 50.7 km/h 76 % 0 mm 0.0 W/m2 CLR
21:08 -15 °C -17.2 °C 34246 hPa NNW 44.7 km/h 44.7 km/h 76 % 0 mm 0.0 W/m2 CLR
21:13 -15 °C -17.2 °C 34246 hPa NNW 41.7 km/h 41.7 km/h 76 % 0 mm 0.0 W/m2 CLR
21:18 -15 °C -17.2 °C 34246 hPa North 56.6 km/h 56.6 km/h 76 % 0 mm 0.0 W/m2 CLR
21:23 -15 °C -17.2 °C 34246 hPa NW 41.7 km/h 41.7 km/h 76 % 0 mm 0.0 W/m2 CLR
21:28 -15 °C -17.2 °C 34246 hPa NNW 41.7 km/h 41.7 km/h 76 % 0 mm 0.0 W/m2 CLR
21:33 -15 °C -17.2 °C 34256.2 hPa NW 29.8 km/h 29.8 km/h 76 % 0 mm 0.0 W/m2 CLR
21:38 -15 °C -17.2 °C 34256.2 hPa NW 47.6 km/h 47.6 km/h 76 % 0 mm 0.0 W/m2 CLR
21:43 -15 °C -17.2 °C 34256.2 hPa WNW 35.7 km/h 35.7 km/h 76 % 0 mm 0.0 W/m2 CLR
21:48 -15 °C -17.3 °C 34256.2 hPa NW 32.8 km/h 32.8 km/h 75 % 0 mm 0.0 W/m2 CLR
21:53 -15 °C -17.2 °C 34246 hPa NW 26.9 km/h 26.9 km/h 76 % 0 mm 0.0 W/m2 CLR
21:58 -15 °C -17.2 °C 34246 hPa NW 31.1 km/h 31.1 km/h 76 % 0 mm 0.0 W/m2 CLR
22:03 -15.3 °C -17.4 °C 34256.2 hPa North 41.7 km/h 41.7 km/h 76 % 0 mm 0.0 W/m2 CLR
22:09 -15.3 °C -17.4 °C 34256.2 hPa NNW 41.7 km/h 41.7 km/h 76 % 0 mm 0.0 W/m2 CLR
22:14 -15.3 °C -17.4 °C 34256.2 hPa NNW 29.8 km/h 29.8 km/h 76 % 0 mm 0.0 W/m2 CLR
22:19 -15 °C -17.2 °C 34256.2 hPa NW 32.8 km/h 32.8 km/h 76 % 0 mm 0.0 W/m2 CLR
22:24 -15.3 °C -17.4 °C 34256.2 hPa NW 15.6 km/h 15.6 km/h 76 % 0 mm 0.0 W/m2 CLR
22:29 -15.3 °C -17.4 °C 34256.2 hPa NW 41.7 km/h 41.7 km/h 76 % 0 mm 0.0 W/m2 CLR
22:34 -15.3 °C -17.4 °C 34256.2 hPa NW 44.7 km/h 44.7 km/h 76 % 0 mm 0.0 W/m2 CLR
22:39 -15.3 °C -17.4 °C 34246 hPa NW 35.7 km/h 35.7 km/h 76 % 0 mm 0.0 W/m2 CLR
22:44 -15.3 °C -17.4 °C 34246 hPa NNW 44.1 km/h 44.1 km/h 76 % 0 mm 0.0 W/m2 CLR
22:49 -15.3 °C -17.4 °C 34246 hPa NNW 41.7 km/h 41.7 km/h 76 % 0 mm 0.0 W/m2 CLR
22:54 -15.3 °C -17.4 °C 34256.2 hPa North 29.8 km/h 29.8 km/h 76 % 0 mm 0.0 W/m2 CLR
22:59 -15.3 °C -17.4 °C 34256.2 hPa NNE 29.8 km/h 29.8 km/h 76 % 0 mm 0.0 W/m2 CLR
23:04 -15.3 °C -17.4 °C 34256.2 hPa North 47.6 km/h 47.6 km/h 76 % 0 mm 0.0 W/m2 CLR
23:09 -15.3 °C -17.4 °C 34256.2 hPa NNW 33.6 km/h 33.6 km/h 76 % 0 mm 0.0 W/m2 CLR
23:14 -15.3 °C -17.4 °C 34256.2 hPa NW 29.8 km/h 29.8 km/h 76 % 0 mm 0.0 W/m2 CLR
23:19 -15.3 °C -17.3 °C 34256.2 hPa NW 23.8 km/h 23.8 km/h 77 % 0 mm 0.0 W/m2 CLR
23:24 -15.3 °C -17.3 °C 34256.2 hPa WNW 35.7 km/h 35.7 km/h 77 % 0 mm 0.0 W/m2 CLR
23:29 -15.3 °C -17.4 °C 34256.2 hPa NNW 26.9 km/h 26.9 km/h 76 % 0 mm 0.0 W/m2 CLR
23:34 -15.3 °C -17.4 °C 34256.2 hPa NNW 31.1 km/h 31.1 km/h 76 % 0 mm 0.0 W/m2 CLR
23:39 -15.3 °C -17.3 °C 34256.2 hPa NNW 35.7 km/h 35.7 km/h 77 % 0 mm 0.0 W/m2 CLR
23:44 -15.3 °C -17.3 °C 34256.2 hPa North 35.7 km/h 35.7 km/h 77 % 0 mm 0.0 W/m2 CLR
23:49 -15.3 °C -17.3 °C 34246 hPa NW 36.2 km/h 36.2 km/h 77 % 0 mm 0.0 W/m2 CLR
23:54 -15.3 °C -17.3 °C 34246 hPa NNW 41.7 km/h 41.7 km/h 77 % 0 mm 0.0 W/m2 CLR
23:59 -15.3 °C -17.3 °C 34246 hPa NNW 41.7 km/h 41.7 km/h 77 % 0 mm 0.0 W/m2 CLR
Lo Temps de Massalio
Compliments of Weather Underground - 1.25 mb